createdAt,value
2019-04-04T00:01:19.339Z,35.63
2019-04-04T00:03:47.872Z,33.35
2019-04-04T00:06:16.411Z,32.33
2019-04-04T00:08:45.091Z,34.78
2019-04-04T00:11:13.557Z,36.50
2019-04-04T00:13:42.606Z,36.00
2019-04-04T00:16:11.209Z,36.60
2019-04-04T00:18:39.674Z,36.45
2019-04-04T00:21:10.367Z,35.40
2019-04-04T00:23:38.603Z,36.60
2019-04-04T00:26:08.854Z,31.82
2019-04-04T00:28:37.492Z,32.38
2019-04-04T00:31:06.030Z,35.38
2019-04-04T00:33:34.623Z,33.67
2019-04-04T00:36:03.366Z,30.77
2019-04-04T00:38:32.182Z,34.97
2019-04-04T00:41:00.763Z,31.60
2019-04-04T00:43:29.251Z,31.23
2019-04-04T00:46:00.454Z,33.73
2019-04-04T00:48:28.069Z,34.78
2019-04-04T00:50:56.612Z,32.88
2019-04-04T00:53:25.187Z,35.43
2019-04-04T00:55:53.645Z,31.53
2019-04-04T00:58:22.136Z,32.98
2019-04-04T01:00:50.673Z,30.80
2019-04-04T01:03:20.788Z,39.58
2019-04-04T01:05:49.390Z,32.75
2019-04-04T01:08:17.903Z,36.37
2019-04-04T01:10:49.522Z,28.65
2019-04-04T01:13:16.806Z,27.63
2019-04-04T01:15:45.476Z,32.50
2019-04-04T01:18:13.936Z,30.83
2019-04-04T01:20:42.467Z,38.28
2019-04-04T01:23:11.056Z,33.60
2019-04-04T01:25:39.527Z,33.73
2019-04-04T01:28:08.732Z,31.17
2019-04-04T01:30:37.793Z,35.00
2019-04-04T01:33:06.406Z,36.23
2019-04-04T01:35:36.217Z,32.40
2019-04-04T01:38:04.880Z,28.20
2019-04-04T01:40:33.864Z,34.18
2019-04-04T01:43:02.557Z,32.93
2019-04-04T01:45:31.172Z,35.17
2019-04-04T01:47:59.771Z,32.63
2019-04-04T01:50:28.238Z,27.00
2019-04-04T01:52:58.824Z,35.10
2019-04-04T01:55:26.900Z,29.95
2019-04-04T01:57:55.507Z,28.75
2019-04-04T02:00:24.152Z,30.65
2019-04-04T02:02:55.617Z,35.92
2019-04-04T02:05:26.715Z,29.05
2019-04-04T02:07:54.603Z,34.40
2019-04-04T02:10:23.206Z,39.63
2019-04-04T02:12:51.751Z,27.93
2019-04-04T02:15:20.293Z,29.13
2019-04-04T02:17:48.791Z,31.23
2019-04-04T02:20:17.328Z,30.85
2019-04-04T02:22:45.868Z,23.50
2019-04-04T02:25:14.483Z,30.85
2019-04-04T02:27:43.019Z,30.77
2019-04-04T02:30:15.218Z,29.70
2019-04-04T02:32:42.122Z,32.37
2019-04-04T02:35:11.748Z,30.05
2019-04-04T02:37:40.850Z,28.85
2019-04-04T02:40:10.273Z,31.30
2019-04-04T02:42:39.644Z,30.80
2019-04-04T02:45:08.703Z,28.75
2019-04-04T02:47:37.722Z,33.03
2019-04-04T02:50:08.561Z,25.87
2019-04-04T02:52:37.175Z,29.67
2019-04-04T02:55:06.485Z,33.95
2019-04-04T02:57:35.745Z,31.73
2019-04-04T03:00:05.696Z,27.73
2019-04-04T03:02:36.172Z,32.53
2019-04-04T03:05:05.946Z,28.57
2019-04-04T03:07:34.563Z,30.70
2019-04-04T03:10:03.531Z,29.80
2019-04-04T03:12:32.535Z,26.80
2019-04-04T03:15:01.235Z,31.45
2019-04-04T03:17:32.681Z,29.77
2019-04-04T03:20:00.137Z,34.18
2019-04-04T03:22:28.664Z,30.80
2019-04-04T03:24:57.200Z,26.90
2019-04-04T03:27:27.410Z,35.10
2019-04-04T03:29:55.926Z,29.63
2019-04-04T03:32:24.739Z,32.40
2019-04-04T03:34:53.354Z,34.43
2019-04-04T03:37:21.901Z,30.30
2019-04-04T03:39:52.963Z,34.65
2019-04-04T03:42:20.922Z,31.43
2019-04-04T03:44:52.833Z,33.40
2019-04-04T03:47:19.739Z,33.73
2019-04-04T03:49:48.195Z,32.78
2019-04-04T03:52:16.734Z,30.32
2019-04-04T03:54:45.343Z,38.07
2019-04-04T03:57:13.882Z,30.60
2019-04-04T03:59:42.365Z,30.97
2019-04-04T04:02:10.976Z,32.05
2019-04-04T04:04:39.632Z,36.93
2019-04-04T04:07:08.114Z,30.67
2019-04-04T04:09:36.559Z,35.27
2019-04-04T04:12:05.172Z,36.97
2019-04-04T04:14:33.904Z,36.25
2019-04-04T04:17:02.488Z,37.27
2019-04-04T04:19:31.538Z,33.67
2019-04-04T04:22:00.314Z,42.97
2019-04-04T04:24:29.849Z,36.73
2019-04-04T04:26:59.021Z,34.27
2019-04-04T04:29:29.866Z,42.67
2019-04-04T04:31:57.787Z,38.07
2019-04-04T04:34:26.316Z,33.53
2019-04-04T04:36:54.975Z,37.10
2019-04-04T04:39:23.513Z,38.33
2019-04-04T04:41:54.194Z,39.30
2019-04-04T04:44:22.445Z,40.85
2019-04-04T04:46:51.244Z,36.43
2019-04-04T04:49:23.179Z,36.90
2019-04-04T04:51:50.051Z,35.53
2019-04-04T04:54:20.466Z,38.27
2019-04-04T04:56:48.919Z,34.73
2019-04-04T04:59:17.381Z,39.25
2019-04-04T05:01:45.925Z,44.27
2019-04-04T05:04:15.634Z,45.77
2019-04-04T05:06:44.102Z,46.73
2019-04-04T05:09:14.107Z,37.10
2019-04-04T05:11:42.920Z,41.23
2019-04-04T05:14:11.545Z,36.42
2019-04-04T05:16:40.149Z,39.30
2019-04-04T05:19:08.616Z,42.95
2019-04-04T05:21:37.174Z,37.80
2019-04-04T05:24:05.840Z,41.50
2019-04-04T05:26:35.534Z,41.63
2019-04-04T05:29:04.803Z,38.98
2019-04-04T05:31:33.396Z,34.73
2019-04-04T05:34:02.048Z,37.67
2019-04-04T05:36:30.639Z,38.75
2019-04-04T05:38:59.273Z,37.95
2019-04-04T05:41:28.132Z,37.40
2019-04-04T05:43:58.111Z,32.00
2019-04-04T05:46:26.658Z,40.63
2019-04-04T05:48:55.213Z,28.20
2019-04-04T05:51:23.754Z,33.83
2019-04-04T05:53:52.276Z,30.85
2019-04-04T05:56:23.926Z,25.05
2019-04-04T05:58:53.143Z,27.77
2019-04-04T06:01:22.873Z,31.97
2019-04-04T06:03:51.508Z,33.23
2019-04-04T06:06:20.057Z,27.25
2019-04-04T06:08:49.685Z,29.02
2019-04-04T06:11:20.858Z,25.92
2019-04-04T06:13:48.651Z,23.35
2019-04-04T06:16:17.137Z,21.50
2019-04-04T06:18:45.611Z,30.48
2019-04-04T06:21:14.155Z,28.98
2019-04-04T06:23:42.699Z,18.60
2019-04-04T06:26:11.243Z,29.67
2019-04-04T06:28:39.869Z,25.75
2019-04-04T06:31:08.548Z,23.05
2019-04-04T06:33:37.162Z,24.37
2019-04-04T06:36:05.773Z,27.65
2019-04-04T06:38:34.322Z,22.70
2019-04-04T06:41:03.063Z,23.80
2019-04-04T06:43:31.656Z,24.65
2019-04-04T06:46:00.197Z,24.75
2019-04-04T06:48:29.384Z,24.00
2019-04-04T06:50:58.990Z,23.30
2019-04-04T06:53:27.468Z,20.88
2019-04-04T06:55:56.102Z,29.80
2019-04-04T06:58:24.639Z,30.97
2019-04-04T07:00:53.297Z,34.40
2019-04-04T07:03:21.917Z,24.67
2019-04-04T07:05:50.533Z,24.23
2019-04-04T07:08:19.084Z,23.38
2019-04-04T07:10:57.319Z,28.17
2019-04-04T07:13:22.004Z,28.77
2019-04-04T07:16:05.633Z,29.07
2019-04-04T07:18:20.114Z,22.02
2019-04-04T07:20:48.973Z,21.33
2019-04-04T07:23:17.652Z,28.30
2019-04-04T07:25:46.266Z,21.20
2019-04-04T07:28:19.091Z,19.85
2019-04-04T07:30:47.695Z,21.27
2019-04-04T07:33:16.313Z,21.12
2019-04-04T07:35:44.797Z,26.30
2019-04-04T07:38:13.346Z,25.23
2019-04-04T07:40:41.841Z,17.75
2019-04-04T07:43:10.391Z,18.00
2019-04-04T07:45:38.854Z,25.55
2019-04-04T07:48:07.735Z,27.82
2019-04-04T07:50:36.354Z,20.30
2019-04-04T07:53:05.347Z,22.65
2019-04-04T07:55:34.240Z,18.85
2019-04-04T07:58:02.778Z,21.50
2019-04-04T08:00:31.494Z,25.30
2019-04-04T08:03:00.031Z,21.15
2019-04-04T08:05:28.659Z,22.25
2019-04-04T08:07:57.137Z,22.42
2019-04-04T08:10:25.709Z,22.90
2019-04-04T08:12:54.245Z,23.87
2019-04-04T08:15:22.857Z,26.37
2019-04-04T08:17:51.422Z,30.20
2019-04-04T08:20:20.043Z,23.27
2019-04-04T08:22:48.612Z,21.62
2019-04-04T08:25:17.310Z,29.25
2019-04-04T08:27:45.854Z,27.05
2019-04-04T08:30:15.021Z,28.12
2019-04-04T08:32:43.642Z,24.27
2019-04-04T08:35:12.384Z,23.02
2019-04-04T08:37:41.114Z,23.42
2019-04-04T08:40:10.561Z,23.47
2019-04-04T08:42:39.264Z,21.65
2019-04-04T08:45:08.679Z,27.25
2019-04-04T08:47:37.282Z,19.87
2019-04-04T08:50:07.219Z,22.45
2019-04-04T08:52:35.944Z,29.45
2019-04-04T08:55:06.156Z,23.52
2019-04-04T08:57:34.893Z,29.18
2019-04-04T09:00:04.707Z,25.75
2019-04-04T09:02:33.289Z,26.50
2019-04-04T09:05:11.939Z,19.17
2019-04-04T09:07:32.049Z,21.52
2019-04-04T09:10:01.756Z,22.50
2019-04-04T09:12:30.296Z,23.42
2019-04-04T09:14:58.910Z,18.27
2019-04-04T09:17:27.551Z,23.30
2019-04-04T09:19:56.101Z,22.62
2019-04-04T09:22:24.735Z,23.75
2019-04-04T09:24:53.364Z,24.37
2019-04-04T09:27:21.977Z,27.00
2019-04-04T09:29:50.529Z,26.00
2019-04-04T09:32:19.184Z,22.55
2019-04-04T09:34:47.800Z,28.00
2019-04-04T09:37:16.415Z,27.90
2019-04-04T09:39:45.058Z,25.62
2019-04-04T09:42:13.668Z,27.80
2019-04-04T09:44:42.240Z,28.67
2019-04-04T09:47:10.859Z,29.25
2019-04-04T09:49:39.478Z,25.72
2019-04-04T09:52:08.205Z,52.90
2019-04-04T09:54:36.813Z,21.90
2019-04-04T09:57:05.583Z,25.90
2019-04-04T09:59:34.171Z,31.85
2019-04-04T10:02:02.806Z,28.57
2019-04-04T10:04:31.412Z,33.73
2019-04-04T10:07:00.072Z,24.75
2019-04-04T10:09:28.649Z,27.20
2019-04-04T10:11:57.189Z,27.27
2019-04-04T10:14:25.841Z,22.45
2019-04-04T10:16:54.447Z,30.05
2019-04-04T10:19:23.089Z,25.50
2019-04-04T10:21:51.711Z,27.13
2019-04-04T10:24:20.248Z,21.62
2019-04-04T10:26:48.794Z,24.95
2019-04-04T10:29:17.409Z,23.83
2019-04-04T10:31:46.047Z,23.42
2019-04-04T10:34:15.683Z,21.87
2019-04-04T10:36:44.161Z,29.57
2019-04-04T10:39:13.775Z,23.02
2019-04-04T10:41:42.817Z,25.52
2019-04-04T10:44:11.342Z,21.37
2019-04-04T10:46:39.969Z,28.00
2019-04-04T10:49:08.579Z,24.77
2019-04-04T10:51:37.430Z,26.93
2019-04-04T10:54:06.072Z,36.53
2019-04-04T10:56:34.638Z,28.07
2019-04-04T10:59:03.285Z,22.50
2019-04-04T11:01:31.906Z,23.83
2019-04-04T11:04:00.452Z,30.85
2019-04-04T11:06:29.101Z,27.32
2019-04-04T11:08:57.708Z,24.40
2019-04-04T11:11:26.353Z,22.65
2019-04-04T11:13:54.995Z,23.90
2019-04-04T11:16:29.988Z,24.25
2019-04-04T11:18:53.891Z,24.30
2019-04-04T11:21:22.490Z,23.05
2019-04-04T11:23:51.030Z,28.00
2019-04-04T11:26:19.578Z,29.75
2019-04-04T11:28:48.226Z,30.27
2019-04-04T11:31:16.825Z,23.73
2019-04-04T11:33:45.472Z,34.15
2019-04-04T11:36:14.088Z,26.17
2019-04-04T11:38:44.147Z,29.67
2019-04-04T11:41:12.975Z,24.90
2019-04-04T11:43:41.888Z,25.02
2019-04-04T11:46:10.497Z,35.55
2019-04-04T11:48:40.365Z,26.15
2019-04-04T11:51:08.989Z,23.40
2019-04-04T11:53:37.620Z,26.50
2019-04-04T11:56:06.145Z,26.95
2019-04-04T11:58:34.759Z,21.33
2019-04-04T12:01:05.010Z,29.57
2019-04-04T12:03:33.553Z,25.85
2019-04-04T12:06:02.194Z,29.00
2019-04-04T12:08:30.844Z,25.30
2019-04-04T12:10:59.457Z,22.25
2019-04-04T12:13:28.070Z,49.90
2019-04-04T12:15:56.677Z,22.77
2019-04-04T12:18:25.252Z,24.77
2019-04-04T12:20:53.905Z,25.20
2019-04-04T12:23:22.597Z,25.88
2019-04-04T12:25:51.141Z,24.25
2019-04-04T12:28:19.762Z,21.93
2019-04-04T12:30:48.319Z,24.57
2019-04-04T12:33:16.912Z,27.55
2019-04-04T12:35:45.445Z,24.20
2019-04-04T12:38:13.989Z,22.42
2019-04-04T12:40:42.532Z,24.57
2019-04-04T12:43:11.222Z,23.27
2019-04-04T12:45:39.825Z,25.68
2019-04-04T12:48:09.258Z,28.83
2019-04-04T12:50:38.067Z,22.07
2019-04-04T12:53:06.781Z,26.80
2019-04-04T12:55:35.467Z,28.38
2019-04-04T12:58:04.077Z,25.32
2019-04-04T13:00:32.616Z,38.30
2019-04-04T13:03:01.161Z,29.10
2019-04-04T13:05:29.799Z,27.27
2019-04-04T13:07:58.341Z,29.07
2019-04-04T13:10:33.055Z,46.02
2019-04-04T13:12:57.384Z,27.35
2019-04-04T13:15:26.023Z,28.05
2019-04-04T13:17:54.497Z,28.50
2019-04-04T13:20:23.147Z,30.37
2019-04-04T13:22:51.838Z,28.23
2019-04-04T13:25:20.539Z,24.37
2019-04-04T13:27:49.080Z,23.80
2019-04-04T13:30:19.291Z,23.32
2019-04-04T13:32:47.836Z,30.70
2019-04-04T13:35:17.073Z,30.88
2019-04-04T13:37:45.912Z,23.95
2019-04-04T13:40:14.953Z,33.10
2019-04-04T13:42:43.570Z,32.28
2019-04-04T13:45:12.198Z,24.92
2019-04-04T13:47:40.823Z,29.10
2019-04-04T13:50:12.681Z,27.52
2019-04-04T13:52:41.669Z,35.15
2019-04-04T13:55:10.586Z,30.45
2019-04-04T13:57:39.614Z,30.08
2019-04-04T14:00:10.060Z,32.73
2019-04-04T14:02:38.813Z,27.58
2019-04-04T14:05:14.034Z,32.30
2019-04-04T14:07:43.520Z,32.90
2019-04-04T14:10:11.721Z,23.45
2019-04-04T14:12:41.436Z,25.43
2019-04-04T14:15:11.476Z,24.77
2019-04-04T14:17:43.341Z,26.05
2019-04-04T14:20:11.033Z,23.02
2019-04-04T14:22:39.763Z,23.35
2019-04-04T14:25:09.879Z,27.73
2019-04-04T14:27:38.425Z,25.77
2019-04-04T14:30:07.937Z,28.47
2019-04-04T14:32:36.549Z,21.25
2019-04-04T14:35:07.532Z,28.15
2019-04-04T14:37:36.150Z,26.62
2019-04-04T14:40:06.668Z,27.98
2019-04-04T14:42:35.322Z,29.18
2019-04-04T14:45:06.605Z,27.20
2019-04-04T14:47:35.686Z,29.05
2019-04-04T14:50:07.293Z,24.82
2019-04-04T14:52:39.059Z,25.50
2019-04-04T14:55:07.165Z,22.87
2019-04-04T14:57:35.779Z,28.35
2019-04-04T15:00:08.263Z,30.55
2019-04-04T15:02:36.876Z,29.32
2019-04-04T15:05:06.437Z,28.50
2019-04-04T15:07:36.662Z,25.25
2019-04-04T15:10:06.284Z,39.83
2019-04-04T15:12:34.892Z,26.55
2019-04-04T15:15:04.034Z,26.33
2019-04-04T15:17:32.755Z,31.65
2019-04-04T15:20:01.316Z,23.57
2019-04-04T15:22:31.951Z,31.95
2019-04-04T15:25:00.135Z,28.23
2019-04-04T15:27:28.748Z,31.20
2019-04-04T15:29:57.292Z,30.02
2019-04-04T15:32:25.921Z,29.48
2019-04-04T15:34:54.389Z,55.33
2019-04-04T15:37:23.002Z,29.27
2019-04-04T15:39:51.593Z,24.67
2019-04-04T15:42:20.196Z,27.82
2019-04-04T15:44:49.095Z,28.65
2019-04-04T15:47:17.709Z,29.27
2019-04-04T15:49:46.358Z,21.97
2019-04-04T15:52:14.929Z,23.55
2019-04-04T15:54:43.401Z,26.05
2019-04-04T15:57:12.167Z,24.32
2019-04-04T15:59:40.718Z,28.35
2019-04-04T16:02:09.358Z,31.12
2019-04-04T16:04:37.910Z,31.27
2019-04-04T16:07:08.110Z,36.42
2019-04-04T16:09:36.676Z,26.00
2019-04-04T16:12:05.322Z,28.98
2019-04-04T16:14:33.793Z,31.37
2019-04-04T16:17:02.420Z,30.40
2019-04-04T16:19:32.683Z,30.12
2019-04-04T16:22:01.328Z,31.60
2019-04-04T16:24:29.870Z,30.17
2019-04-04T16:26:58.496Z,35.98
2019-04-04T16:29:27.167Z,29.37
2019-04-04T16:31:55.785Z,31.40
2019-04-04T16:34:24.382Z,29.20
2019-04-04T16:36:52.971Z,28.57
2019-04-04T16:39:21.607Z,37.93
2019-04-04T16:42:01.464Z,31.15
2019-04-04T16:44:20.641Z,27.93
2019-04-04T16:46:49.252Z,37.48
2019-04-04T16:49:17.733Z,26.60
2019-04-04T16:51:46.390Z,31.07
2019-04-04T16:54:14.934Z,37.13
2019-04-04T16:56:43.490Z,29.20
2019-04-04T16:59:12.017Z,33.05
2019-04-04T17:01:43.376Z,33.95
2019-04-04T17:04:11.984Z,33.92
2019-04-04T17:06:40.541Z,47.85
2019-04-04T17:09:09.140Z,47.25
2019-04-04T17:11:37.781Z,46.95
2019-04-04T17:14:06.526Z,41.75
2019-04-04T17:16:35.154Z,38.53
2019-04-04T17:19:03.776Z,42.15
2019-04-04T17:21:39.892Z,37.58
2019-04-04T17:24:08.542Z,39.50
2019-04-04T17:26:37.148Z,39.90
2019-04-04T17:29:05.762Z,40.40
2019-04-04T17:31:34.410Z,43.23
2019-04-04T17:34:03.557Z,44.33
2019-04-04T17:36:32.869Z,42.20
2019-04-04T17:39:01.887Z,33.08
2019-04-04T17:41:30.702Z,44.48
2019-04-04T17:43:59.319Z,47.10
2019-04-04T17:46:28.429Z,43.60
2019-04-04T17:48:57.557Z,41.13
2019-04-04T17:51:26.232Z,46.45
2019-04-04T17:53:54.779Z,42.62
2019-04-04T17:56:23.742Z,38.50
2019-04-04T17:58:52.437Z,41.25
2019-04-04T18:01:22.742Z,50.23
2019-04-04T18:03:51.350Z,47.88
2019-04-04T18:06:20.004Z,50.00
2019-04-04T18:08:48.678Z,45.55
2019-04-04T18:11:17.285Z,49.50
2019-04-04T18:13:45.901Z,43.17
2019-04-04T18:16:15.092Z,42.08
2019-04-04T18:18:43.634Z,49.03
2019-04-04T18:21:12.188Z,33.55
2019-04-04T18:23:40.687Z,37.58
2019-04-04T18:26:09.304Z,40.30
2019-04-04T18:28:39.481Z,36.48
2019-04-04T18:31:08.322Z,35.60
2019-04-04T18:33:37.223Z,43.33
2019-04-04T18:36:05.908Z,42.30
2019-04-04T18:38:34.551Z,45.28
2019-04-04T18:41:03.235Z,43.90
2019-04-04T18:43:31.780Z,48.05
2019-04-04T18:46:00.402Z,49.60
2019-04-04T18:48:28.947Z,55.00
2019-04-04T18:50:57.501Z,58.05
2019-04-04T18:53:26.107Z,64.17
2019-04-04T18:55:54.731Z,65.65
2019-04-04T18:58:23.289Z,56.85
2019-04-04T19:00:52.044Z,77.03
2019-04-04T19:03:20.879Z,80.25
2019-04-04T19:05:49.552Z,76.10
2019-04-04T19:08:18.162Z,89.30
2019-04-04T19:10:46.684Z,64.80
2019-04-04T19:13:15.320Z,68.00
2019-04-04T19:15:44.084Z,74.37
2019-04-04T19:18:12.719Z,72.95
2019-04-04T19:20:41.328Z,67.45
2019-04-04T19:23:09.872Z,55.60
2019-04-04T19:25:38.531Z,56.75
2019-04-04T19:28:07.241Z,52.43
2019-04-04T19:30:35.891Z,49.18
2019-04-04T19:33:04.645Z,57.38
2019-04-04T19:35:33.211Z,48.87
2019-04-04T19:38:01.819Z,59.75
2019-04-04T19:40:30.476Z,54.90
2019-04-04T19:42:59.016Z,60.92
2019-04-04T19:45:27.626Z,55.73
2019-04-04T19:47:56.358Z,62.65
2019-04-04T19:50:25.242Z,56.48
2019-04-04T19:52:53.806Z,54.05
2019-04-04T19:55:22.483Z,52.88
2019-04-04T19:57:51.023Z,53.08
2019-04-04T20:00:19.709Z,50.50
2019-04-04T20:02:48.246Z,46.50
2019-04-04T20:05:17.237Z,52.00
2019-04-04T20:07:45.869Z,55.23
2019-04-04T20:10:14.952Z,57.93
2019-04-04T20:12:43.492Z,50.83
2019-04-04T20:15:12.807Z,48.50
2019-04-04T20:17:41.272Z,60.73
2019-04-04T20:20:10.203Z,51.73
2019-04-04T20:22:38.806Z,57.85
2019-04-04T20:25:08.348Z,53.78
2019-04-04T20:27:37.024Z,54.45
2019-04-04T20:30:07.934Z,53.00
2019-04-04T20:32:36.607Z,40.30
2019-04-04T20:35:08.547Z,45.50
2019-04-04T20:37:37.234Z,48.92
2019-04-04T20:40:06.925Z,50.48
2019-04-04T20:42:35.572Z,46.08
2019-04-04T20:45:05.275Z,58.17
2019-04-04T20:47:34.061Z,59.67
2019-04-04T20:50:03.447Z,51.05
2019-04-04T20:52:31.906Z,61.20
2019-04-04T20:55:00.446Z,59.83
2019-04-04T20:57:29.056Z,49.67
2019-04-04T20:59:57.868Z,51.40
2019-04-04T21:02:26.415Z,56.15
2019-04-04T21:04:55.221Z,55.00
2019-04-04T21:07:23.754Z,51.68
2019-04-04T21:09:52.402Z,57.80
2019-04-04T21:12:20.976Z,55.67
2019-04-04T21:14:49.579Z,52.45
2019-04-04T21:17:18.155Z,58.33
2019-04-04T21:19:46.690Z,65.78
2019-04-04T21:22:26.828Z,63.42
2019-04-04T21:24:45.530Z,58.05
2019-04-04T21:27:14.104Z,57.25
2019-04-04T21:29:42.573Z,57.30
2019-04-04T21:32:11.076Z,49.93
2019-04-04T21:34:39.610Z,51.63
2019-04-04T21:37:08.236Z,57.55
2019-04-04T21:39:36.893Z,50.33
2019-04-04T21:42:05.501Z,56.00
2019-04-04T21:44:34.141Z,53.92
2019-04-04T21:47:02.680Z,56.58
2019-04-04T21:49:32.874Z,61.13
2019-04-04T21:52:01.409Z,61.10
2019-04-04T21:54:29.944Z,56.18
2019-04-04T21:56:58.593Z,59.00
2019-04-04T21:59:28.864Z,58.83
2019-04-04T22:01:57.477Z,61.53
2019-04-04T22:04:26.255Z,54.05
2019-04-04T22:06:54.835Z,58.70
2019-04-04T22:09:23.515Z,58.28
2019-04-04T22:11:52.238Z,54.13
2019-04-04T22:14:21.988Z,57.53
2019-04-04T22:16:51.092Z,53.15
2019-04-04T22:19:19.754Z,56.68
2019-04-04T22:21:49.728Z,55.23
2019-04-04T22:24:18.272Z,54.45
2019-04-04T22:26:46.891Z,59.67
2019-04-04T22:29:15.412Z,55.88
2019-04-04T22:31:44.004Z,48.42
2019-04-04T22:34:12.605Z,54.80
2019-04-04T22:36:47.259Z,47.25
2019-04-04T22:39:15.835Z,52.35
2019-04-04T22:41:44.518Z,50.17
2019-04-04T22:44:13.057Z,53.90
2019-04-04T22:46:41.675Z,51.92
2019-04-04T22:49:10.279Z,52.17
2019-04-04T22:51:38.963Z,47.75
2019-04-04T22:54:07.567Z,53.52
2019-04-04T22:56:36.217Z,45.28
2019-04-04T22:59:04.934Z,50.38
2019-04-04T23:01:33.718Z,46.83
2019-04-04T23:04:02.256Z,50.15
2019-04-04T23:06:30.946Z,50.03
2019-04-04T23:08:59.563Z,52.60
2019-04-04T23:11:28.038Z,51.13
2019-04-04T23:13:56.676Z,48.63
2019-04-04T23:16:25.278Z,50.28
2019-04-04T23:18:53.918Z,58.20
2019-04-04T23:21:22.747Z,55.55
2019-04-04T23:23:51.320Z,58.50
2019-04-04T23:26:20.012Z,61.83
2019-04-04T23:28:48.595Z,54.30
2019-04-04T23:31:17.346Z,57.65
2019-04-04T23:33:45.957Z,64.95
2019-04-04T23:36:14.696Z,57.20
2019-04-04T23:38:43.306Z,63.25
2019-04-04T23:41:11.884Z,56.23
2019-04-04T23:43:40.434Z,61.25
2019-04-04T23:46:09.064Z,61.25
2019-04-04T23:48:37.537Z,62.38
2019-04-04T23:51:06.191Z,68.22
2019-04-04T23:53:34.772Z,65.45
2019-04-04T23:56:03.310Z,59.27
2019-04-04T23:58:31.774Z,61.35
